Kezdőlap
METAR-TAF:

METAR-TAF

Repülőterek :

Kangerlussuaq, Grönland

földrajzi szélesség: 67-01N, földrajzi hosszúság: 050-42W, magasság: 50 m

Jelenlegi meteorológiai megfigyelések

A jelentés 54 perccel ezelõtt készült, 15:50 UTC
Délnyugati szél 7 kt
Hőmérséklet 21°C
Páratartalom 28%
Légköri nyomás 1010 hPa
Látótávolság 10 km, vagy több

METAR: BGSF 181550Z AUTO 23007KT 9999NDV NCD 21/02 Q1010

Idő: 14:44 (16:44 UTC)

Előrejelzés

A jelentés 5 órával és 38 perccel ezelõtt készült, 11:06 UTC
Az előrejelzés 18-én 12 óra UTC és 19-én 18 óra UTC között érvényes
Különbözõ irányokból fújó szél 8 kt
Látótávolság 10 km, vagy több
Kevés felhő 20000 lábon

TAF: BGSF 181106Z 1812/1918 VRB08KT 9999 FEW200

Meteorológiai megfigyelések és előrejelzések több, mint 4000 repülőtéren (METAR és TAF jelentéseket).

A térképen piros és sárga pontok jelzik az elérhető meteorológiai állomásokat.

Mozgassa az egeret a pont fölött, hogy megjelenjen az állomás neve.

Azután kattintson az időjárási megfigyelések és előrejelzések megtekintéséhez.

A térkép megváltoztatása: kattintson a fekete keresztel jelölt zöld gombra ráközelítéshez, a vonallal jelölt zöld gombra távolításhoz, vagy a zöld nyilakra a szomszédos térképek eléréséhez.


METAR-TAF: